Weather at Cowichan District Hospital Heliport

Public forecast

Using degrees Celsius for public forecast. Weather courtesy of forecast.io.

Closest aviation weather report (METAR) to Cowichan District Hospital Heliport

Closest report is Victoria International Airport, 14.3 nm (26.5 km) SE.

2024/05/20 06:00 (retrieved 21 minutes ago)

CYYJ 200600Z 27006KT 30SM SKC 09/08 A3022 RMK SLP237

Closest aviation forecast (TAF) to Cowichan District Hospital Heliport

Closest forecast is Victoria International Airport, 14.3 nm (26.5 km) SE.

2024/05/20 06:42 (retrieved 0 seconds ago)

TAF TAF CYYJ 200540Z 2006/2106 25005KT P6SM FEW050 FM201600 VRB03KT P6SM SCT040 BKN150 BECMG 2018/2020 11010KT FM202200 11010KT P6SM SCT040 SCT080 BKN120 BECMG 2103/2105 26008KT RMK NXT FCST BY 201200Z